sensor_id;sensor_type;location;lat;lon;timestamp;P1;durP1;ratioP1;P2;durP2;ratioP2
67051;SDS011;53957;47.222;18.670;2022-07-10T06:30:19;65.18;;;61.17;;
67051;SDS011;53957;47.222;18.670;2022-07-10T06:33:31;76.07;;;71.35;;
67051;SDS011;53957;47.222;18.670;2022-07-10T06:36:37;74.28;;;69.45;;
67051;SDS011;53957;47.222;18.670;2022-07-10T06:39:41;76.75;;;71.80;;
67051;SDS011;53957;47.222;18.670;2022-07-10T06:42:45;90.87;;;84.20;;
67051;SDS011;53957;47.222;18.670;2022-07-10T06:45:48;80.25;;;75.10;;
67051;SDS011;53957;47.222;18.670;2022-07-10T06:48:51;78.75;;;73.78;;
67051;SDS011;53957;47.222;18.670;2022-07-10T06:51:54;90.07;;;84.07;;
67051;SDS011;53957;47.222;18.670;2022-07-10T06:54:57;84.55;;;79.12;;
67051;SDS011;53957;47.222;18.670;2022-07-10T06:58:01;72.47;;;67.97;;
67051;SDS011;53957;47.222;18.670;2022-07-10T07:01:05;86.20;;;80.78;;
67051;SDS011;53957;47.222;18.670;2022-07-10T07:04:08;88.37;;;82.75;;
67051;SDS011;53957;47.222;18.670;2022-07-10T07:07:14;76.12;;;71.40;;
67051;SDS011;53957;47.222;18.670;2022-07-10T07:10:26;78.62;;;73.43;;
67051;SDS011;53957;47.222;18.670;2022-07-10T07:13:29;91.22;;;85.12;;
67051;SDS011;53957;47.222;18.670;2022-07-10T07:16:32;88.97;;;83.00;;
67051;SDS011;53957;47.222;18.670;2022-07-10T07:19:44;91.35;;;84.20;;
67051;SDS011;53957;47.222;18.670;2022-07-10T07:23:14;74.53;;;69.70;;
67051;SDS011;53957;47.222;18.670;2022-07-10T07:26:21;67.70;;;63.38;;
67051;SDS011;53957;47.222;18.670;2022-07-10T07:29:26;67.85;;;63.40;;
67051;SDS011;53957;47.222;18.670;2022-07-10T07:32:29;60.28;;;56.42;;
67051;SDS011;53957;47.222;18.670;2022-07-10T07:35:33;74.15;;;69.18;;
67051;SDS011;53957;47.222;18.670;2022-07-10T07:38:36;75.25;;;70.20;;
67051;SDS011;53957;47.222;18.670;2022-07-10T07:41:40;80.20;;;74.85;;
67051;SDS011;53957;47.222;18.670;2022-07-10T07:44:59;78.05;;;72.30;;
67051;SDS011;53957;47.222;18.670;2022-07-10T07:48:02;71.70;;;67.18;;
67051;SDS011;53957;47.222;18.670;2022-07-10T07:51:05;79.25;;;74.07;;
67051;SDS011;53957;47.222;18.670;2022-07-10T07:54:08;104.53;;;96.32;;
67051;SDS011;53957;47.222;18.670;2022-07-10T07:57:11;80.35;;;75.10;;
67051;SDS011;53957;47.222;18.670;2022-07-10T08:00:14;120.00;;;110.22;;
67051;SDS011;53957;47.222;18.670;2022-07-10T08:03:40;75.12;;;70.37;;
67051;SDS011;53957;47.222;18.670;2022-07-10T08:07:04;85.87;;;80.30;;
67051;SDS011;53957;47.222;18.670;2022-07-10T08:10:16;86.05;;;80.65;;
67051;SDS011;53957;47.222;18.670;2022-07-10T08:13:30;70.82;;;66.50;;
67051;SDS011;53957;47.222;18.670;2022-07-10T08:16:39;82.40;;;77.03;;
67051;SDS011;53957;47.222;18.670;2022-07-10T08:19:42;84.93;;;79.35;;
67051;SDS011;53957;47.222;18.670;2022-07-10T08:22:45;76.15;;;71.22;;
67051;SDS011;53957;47.222;18.670;2022-07-10T08:25:49;75.47;;;70.72;;
67051;SDS011;53957;47.222;18.670;2022-07-10T08:28:55;83.12;;;77.65;;
67051;SDS011;53957;47.222;18.670;2022-07-10T08:32:18;82.80;;;77.07;;
67051;SDS011;53957;47.222;18.670;2022-07-10T08:35:22;90.12;;;84.35;;
67051;SDS011;53957;47.222;18.670;2022-07-10T08:38:27;94.82;;;88.57;;
67051;SDS011;53957;47.222;18.670;2022-07-10T08:41:30;92.85;;;87.00;;
67051;SDS011;53957;47.222;18.670;2022-07-10T08:44:33;87.05;;;81.53;;
67051;SDS011;53957;47.222;18.670;2022-07-10T08:47:37;76.80;;;71.95;;
67051;SDS011;53957;47.222;18.670;2022-07-10T08:50:44;84.25;;;78.62;;
67051;SDS011;53957;47.222;18.670;2022-07-10T08:53:50;87.80;;;82.12;;
67051;SDS011;53957;47.222;18.670;2022-07-10T08:56:54;85.07;;;79.55;;
67051;SDS011;53957;47.222;18.670;2022-07-10T09:00:02;81.53;;;76.35;;
67051;SDS011;53957;47.222;18.670;2022-07-10T09:03:09;144.45;;;83.68;;
67051;SDS011;53957;47.222;18.670;2022-07-10T09:06:12;86.05;;;80.28;;
67051;SDS011;53957;47.222;18.670;2022-07-10T09:09:16;88.28;;;82.40;;
67051;SDS011;53957;47.222;18.670;2022-07-10T09:12:49;87.03;;;81.40;;
67051;SDS011;53957;47.222;18.670;2022-07-10T09:15:52;89.97;;;84.37;;
67051;SDS011;53957;47.222;18.670;2022-07-10T09:18:56;77.28;;;72.30;;
67051;SDS011;53957;47.222;18.670;2022-07-10T09:22:16;89.03;;;83.30;;
67051;SDS011;53957;47.222;18.670;2022-07-10T09:25:19;95.00;;;88.82;;
67051;SDS011;53957;47.222;18.670;2022-07-10T09:28:22;102.10;;;95.03;;
67051;SDS011;53957;47.222;18.670;2022-07-10T09:31:28;85.75;;;80.25;;
67051;SDS011;53957;47.222;18.670;2022-07-10T09:34:56;88.80;;;83.00;;
67051;SDS011;53957;47.222;18.670;2022-07-10T09:38:19;77.72;;;72.62;;
67051;SDS011;53957;47.222;18.670;2022-07-10T09:41:29;84.45;;;78.90;;
67051;SDS011;53957;47.222;18.670;2022-07-10T09:44:34;81.35;;;76.32;;
67051;SDS011;53957;47.222;18.670;2022-07-10T09:47:41;89.03;;;83.28;;
67051;SDS011;53957;47.222;18.670;2022-07-10T09:50:46;93.82;;;87.47;;
67051;SDS011;53957;47.222;18.670;2022-07-10T09:53:49;90.93;;;85.10;;
67051;SDS011;53957;47.222;18.670;2022-07-10T09:56:52;93.22;;;86.65;;
67051;SDS011;53957;47.222;18.670;2022-07-10T09:59:58;94.35;;;88.28;;
67051;SDS011;53957;47.222;18.670;2022-07-10T10:03:05;91.40;;;85.43;;
67051;SDS011;53957;47.222;18.670;2022-07-10T10:06:16;95.97;;;89.60;;
67051;SDS011;53957;47.222;18.670;2022-07-10T10:09:29;96.05;;;90.00;;
67051;SDS011;53957;47.222;18.670;2022-07-10T10:12:44;92.32;;;86.20;;
67051;SDS011;53957;47.222;18.670;2022-07-10T10:15:54;104.65;;;97.62;;
67051;SDS011;53957;47.222;18.670;2022-07-10T10:18:58;140.60;;;129.87;;
67051;SDS011;53957;47.222;18.670;2022-07-10T10:22:20;101.35;;;94.43;;
67051;SDS011;53957;47.222;18.670;2022-07-10T10:25:25;126.93;;;116.85;;
67051;SDS011;53957;47.222;18.670;2022-07-10T10:28:29;100.05;;;93.47;;
67051;SDS011;53957;47.222;18.670;2022-07-10T10:31:36;94.37;;;88.12;;
67051;SDS011;53957;47.222;18.670;2022-07-10T10:34:45;94.07;;;88.00;;
67051;SDS011;53957;47.222;18.670;2022-07-10T10:38:01;99.78;;;93.20;;
67051;SDS011;53957;47.222;18.670;2022-07-10T10:44:27;141.18;;;128.65;;
67051;SDS011;53957;47.222;18.670;2022-07-10T10:47:56;143.10;;;130.50;;
67051;SDS011;53957;47.222;18.670;2022-07-10T10:55:17;94.03;;;87.85;;
67051;SDS011;53957;47.222;18.670;2022-07-10T10:58:23;91.53;;;85.72;;
67051;SDS011;53957;47.222;18.670;2022-07-10T11:01:28;88.90;;;83.18;;
67051;SDS011;53957;47.222;18.670;2022-07-10T11:04:39;96.45;;;90.00;;
67051;SDS011;53957;47.222;18.670;2022-07-10T11:08:01;94.25;;;88.05;;
67051;SDS011;53957;47.222;18.670;2022-07-10T11:14:35;91.40;;;85.50;;
67051;SDS011;53957;47.222;18.670;2022-07-10T11:17:46;85.45;;;79.35;;
67051;SDS011;53957;47.222;18.670;2022-07-10T11:24:12;82.03;;;76.00;;
67051;SDS011;53957;47.222;18.670;2022-07-10T11:27:55;153.00;;;141.20;;
67051;SDS011;53957;47.222;18.670;2022-07-10T11:31:10;84.15;;;78.05;;
67051;SDS011;53957;47.222;18.670;2022-07-10T11:34:13;86.63;;;80.95;;
67051;SDS011;53957;47.222;18.670;2022-07-10T11:37:17;107.22;;;99.07;;
67051;SDS011;53957;47.222;18.670;2022-07-10T11:40:20;78.60;;;72.90;;
67051;SDS011;53957;47.222;18.670;2022-07-10T11:43:24;77.45;;;72.03;;
67051;SDS011;53957;47.222;18.670;2022-07-10T11:46:28;79.55;;;74.12;;
67051;SDS011;53957;47.222;18.670;2022-07-10T11:49:43;80.12;;;75.03;;
67051;SDS011;53957;47.222;18.670;2022-07-10T11:52:54;97.10;;;90.32;;
67051;SDS011;53957;47.222;18.670;2022-07-10T11:56:00;86.45;;;80.45;;
67051;SDS011;53957;47.222;18.670;2022-07-10T13:59:08;57.60;;;53.87;;
67051;SDS011;53957;47.222;18.670;2022-07-10T14:02:14;63.55;;;59.20;;
67051;SDS011;53957;47.222;18.670;2022-07-10T14:05:18;68.57;;;64.15;;
67051;SDS011;53957;47.222;18.670;2022-07-10T14:08:21;67.60;;;63.25;;
67051;SDS011;53957;47.222;18.670;2022-07-10T14:11:24;75.05;;;69.90;;
67051;SDS011;53957;47.222;18.670;2022-07-10T14:14:27;74.25;;;68.90;;
67051;SDS011;53957;47.222;18.670;2022-07-10T14:17:30;76.30;;;71.07;;
67051;SDS011;53957;47.222;18.670;2022-07-10T14:20:33;78.47;;;73.35;;
67051;SDS011;53957;47.222;18.670;2022-07-10T14:23:56;62.92;;;59.15;;
67051;SDS011;53957;47.222;18.670;2022-07-10T14:26:59;67.47;;;63.30;;
67051;SDS011;53957;47.222;18.670;2022-07-10T14:33:41;90.12;;;83.25;;
67051;SDS011;53957;47.222;18.670;2022-07-10T14:36:44;56.83;;;52.95;;
67051;SDS011;53957;47.222;18.670;2022-07-10T14:39:54;63.95;;;59.42;;
67051;SDS011;53957;47.222;18.670;2022-07-10T14:42:57;88.15;;;80.95;;
67051;SDS011;53957;47.222;18.670;2022-07-10T14:46:00;74.72;;;70.00;;
67051;SDS011;53957;47.222;18.670;2022-07-10T14:49:06;98.37;;;90.53;;
67051;SDS011;53957;47.222;18.670;2022-07-10T14:52:09;214.23;;;193.80;;
67051;SDS011;53957;47.222;18.670;2022-07-10T14:55:18;62.33;;;58.40;;
67051;SDS011;53957;47.222;18.670;2022-07-10T14:58:21;67.87;;;63.03;;
67051;SDS011;53957;47.222;18.670;2022-07-10T15:01:24;64.50;;;60.35;;
67051;SDS011;53957;47.222;18.670;2022-07-10T15:04:28;65.30;;;61.28;;
67051;SDS011;53957;47.222;18.670;2022-07-10T15:07:31;67.87;;;63.78;;
67051;SDS011;53957;47.222;18.670;2022-07-10T15:10:35;71.50;;;66.82;;
67051;SDS011;53957;47.222;18.670;2022-07-10T15:13:38;65.20;;;61.13;;
67051;SDS011;53957;47.222;18.670;2022-07-10T15:16:41;57.28;;;53.90;;
67051;SDS011;53957;47.222;18.670;2022-07-10T15:19:45;62.20;;;58.40;;
67051;SDS011;53957;47.222;18.670;2022-07-10T15:22:48;51.80;;;47.95;;
67051;SDS011;53957;47.222;18.670;2022-07-10T15:25:51;61.42;;;56.90;;
67051;SDS011;53957;47.222;18.670;2022-07-10T15:29:03;55.22;;;51.70;;
67051;SDS011;53957;47.222;18.670;2022-07-10T15:32:06;55.72;;;52.50;;
67051;SDS011;53957;47.222;18.670;2022-07-10T15:35:09;64.35;;;60.53;;
67051;SDS011;53957;47.222;18.670;2022-07-10T15:38:12;52.45;;;49.03;;
67051;SDS011;53957;47.222;18.670;2022-07-10T15:41:16;73.70;;;68.85;;
67051;SDS011;53957;47.222;18.670;2022-07-10T15:44:19;61.53;;;57.75;;
67051;SDS011;53957;47.222;18.670;2022-07-10T15:47:22;59.33;;;55.58;;
67051;SDS011;53957;47.222;18.670;2022-07-10T15:50:25;54.42;;;50.90;;
67051;SDS011;53957;47.222;18.670;2022-07-10T15:53:39;54.17;;;50.42;;
67051;SDS011;53957;47.222;18.670;2022-07-10T17:18:03;26.15;;;24.83;;
67051;SDS011;53957;47.222;18.670;2022-07-10T17:21:07;30.08;;;27.95;;
67051;SDS011;53957;47.222;18.670;2022-07-10T17:24:19;28.23;;;26.33;;
67051;SDS011;53957;47.222;18.670;2022-07-10T17:27:25;28.30;;;26.35;;
67051;SDS011;53957;47.222;18.670;2022-07-10T17:30:31;25.42;;;23.83;;
67051;SDS011;53957;47.222;18.670;2022-07-10T17:33:34;37.55;;;35.17;;
67051;SDS011;53957;47.222;18.670;2022-07-10T17:36:37;28.62;;;26.90;;
67051;SDS011;53957;47.222;18.670;2022-07-10T17:39:41;28.42;;;26.80;;
67051;SDS011;53957;47.222;18.670;2022-07-10T17:42:55;46.13;;;43.00;;
67051;SDS011;53957;47.222;18.670;2022-07-10T17:46:03;33.58;;;31.58;;
67051;SDS011;53957;47.222;18.670;2022-07-10T17:49:06;36.58;;;34.55;;
67051;SDS011;53957;47.222;18.670;2022-07-10T17:52:14;39.65;;;36.42;;
67051;SDS011;53957;47.222;18.670;2022-07-10T17:55:24;18.15;;;17.20;;
67051;SDS011;53957;47.222;18.670;2022-07-10T17:58:31;39.63;;;37.30;;
67051;SDS011;53957;47.222;18.670;2022-07-10T18:01:35;22.75;;;21.40;;
67051;SDS011;53957;47.222;18.670;2022-07-10T18:04:40;21.37;;;20.08;;
67051;SDS011;53957;47.222;18.670;2022-07-10T18:07:44;30.45;;;28.83;;
67051;SDS011;53957;47.222;18.670;2022-07-10T18:10:48;22.80;;;21.33;;
67051;SDS011;53957;47.222;18.670;2022-07-10T18:13:51;21.52;;;20.33;;
67051;SDS011;53957;47.222;18.670;2022-07-10T18:16:58;17.87;;;17.00;;
67051;SDS011;53957;47.222;18.670;2022-07-10T18:20:02;17.55;;;16.65;;
67051;SDS011;53957;47.222;18.670;2022-07-10T18:23:07;19.70;;;18.60;;
67051;SDS011;53957;47.222;18.670;2022-07-10T18:26:10;18.15;;;17.25;;
67051;SDS011;53957;47.222;18.670;2022-07-10T18:29:15;18.65;;;17.62;;
67051;SDS011;53957;47.222;18.670;2022-07-10T18:32:20;16.85;;;16.02;;
67051;SDS011;53957;47.222;18.670;2022-07-10T18:35:44;16.17;;;15.02;;
67051;SDS011;53957;47.222;18.670;2022-07-10T18:38:47;21.45;;;20.33;;
67051;SDS011;53957;47.222;18.670;2022-07-10T18:41:51;14.13;;;13.13;;
67051;SDS011;53957;47.222;18.670;2022-07-10T18:44:54;16.17;;;15.10;;
67051;SDS011;53957;47.222;18.670;2022-07-10T18:48:01;31.75;;;29.73;;
67051;SDS011;53957;47.222;18.670;2022-07-10T18:51:05;21.90;;;20.52;;
67051;SDS011;53957;47.222;18.670;2022-07-10T18:54:09;23.12;;;21.73;;
67051;SDS011;53957;47.222;18.670;2022-07-10T18:57:12;28.67;;;26.52;;
67051;SDS011;53957;47.222;18.670;2022-07-10T19:00:19;14.30;;;13.23;;
67051;SDS011;53957;47.222;18.670;2022-07-10T19:03:24;21.83;;;20.55;;
67051;SDS011;53957;47.222;18.670;2022-07-10T19:06:31;18.35;;;17.35;;
67051;SDS011;53957;47.222;18.670;2022-07-10T19:09:48;16.35;;;15.30;;
67051;SDS011;53957;47.222;18.670;2022-07-10T19:12:57;20.40;;;19.33;;
67051;SDS011;53957;47.222;18.670;2022-07-10T19:16:03;18.92;;;17.83;;
67051;SDS011;53957;47.222;18.670;2022-07-10T21:02:43;18.35;;;17.40;;
67051;SDS011;53957;47.222;18.670;2022-07-10T21:05:47;19.17;;;18.20;;
67051;SDS011;53957;47.222;18.670;2022-07-10T21:08:50;16.80;;;16.00;;
67051;SDS011;53957;47.222;18.670;2022-07-10T21:11:53;15.68;;;13.80;;
67051;SDS011;53957;47.222;18.670;2022-07-10T21:14:56;17.37;;;16.35;;
67051;SDS011;53957;47.222;18.670;2022-07-10T21:17:59;15.55;;;14.75;;
67051;SDS011;53957;47.222;18.670;2022-07-10T21:21:02;19.42;;;18.40;;
67051;SDS011;53957;47.222;18.670;2022-07-10T21:24:06;18.65;;;17.65;;
67051;SDS011;53957;47.222;18.670;2022-07-10T21:27:09;16.98;;;16.02;;
67051;SDS011;53957;47.222;18.670;2022-07-10T21:30:12;16.60;;;15.55;;
67051;SDS011;53957;47.222;18.670;2022-07-10T21:33:15;21.23;;;20.15;;
67051;SDS011;53957;47.222;18.670;2022-07-10T21:36:19;19.73;;;18.65;;
67051;SDS011;53957;47.222;18.670;2022-07-10T21:39:22;16.55;;;15.55;;
67051;SDS011;53957;47.222;18.670;2022-07-10T21:42:26;21.15;;;19.80;;
67051;SDS011;53957;47.222;18.670;2022-07-10T21:45:33;18.15;;;17.25;;
67051;SDS011;53957;47.222;18.670;2022-07-10T21:48:36;19.33;;;18.23;;
67051;SDS011;53957;47.222;18.670;2022-07-10T21:51:39;15.05;;;14.20;;
67051;SDS011;53957;47.222;18.670;2022-07-10T21:54:43;18.27;;;17.37;;
67051;SDS011;53957;47.222;18.670;2022-07-10T21:57:46;17.60;;;16.70;;
67051;SDS011;53957;47.222;18.670;2022-07-10T22:00:49;20.90;;;19.83;;
67051;SDS011;53957;47.222;18.670;2022-07-10T22:03:52;18.67;;;17.55;;
67051;SDS011;53957;47.222;18.670;2022-07-10T22:06:59;17.30;;;16.33;;
67051;SDS011;53957;47.222;18.670;2022-07-10T22:10:02;19.20;;;18.00;;
67051;SDS011;53957;47.222;18.670;2022-07-10T22:13:05;18.17;;;17.25;;
67051;SDS011;53957;47.222;18.670;2022-07-10T22:16:08;18.75;;;17.73;;
67051;SDS011;53957;47.222;18.670;2022-07-10T22:19:12;20.40;;;19.30;;
67051;SDS011;53957;47.222;18.670;2022-07-10T22:22:15;17.33;;;16.42;;
67051;SDS011;53957;47.222;18.670;2022-07-10T22:25:18;20.70;;;19.52;;
67051;SDS011;53957;47.222;18.670;2022-07-10T22:28:25;18.37;;;17.37;;
67051;SDS011;53957;47.222;18.670;2022-07-10T22:31:28;18.65;;;17.55;;
67051;SDS011;53957;47.222;18.670;2022-07-10T22:34:31;18.67;;;17.67;;
67051;SDS011;53957;47.222;18.670;2022-07-10T22:37:34;18.12;;;17.15;;
67051;SDS011;53957;47.222;18.670;2022-07-10T22:40:37;15.30;;;14.50;;
67051;SDS011;53957;47.222;18.670;2022-07-10T22:43:40;14.73;;;13.93;;
67051;SDS011;53957;47.222;18.670;2022-07-10T22:46:44;19.95;;;18.80;;
67051;SDS011;53957;47.222;18.670;2022-07-10T22:49:47;20.10;;;18.87;;
67051;SDS011;53957;47.222;18.670;2022-07-10T22:52:50;19.52;;;18.45;;
67051;SDS011;53957;47.222;18.670;2022-07-10T22:55:53;20.70;;;19.48;;
67051;SDS011;53957;47.222;18.670;2022-07-10T22:58:57;21.12;;;19.95;;
